Terminal Aerodrome Forecast
Issued by NWS

Home | Current Version | Previous Version | Text Only | Print | Product List | Glossary On
Versions: 1 2 3 4 5 6 7 8 9 10 11 12 13 14 15 16
218
FTUS46 KPDT 021738
TAFALW
TAF
KALW 021738Z 0218/0318 18006KT P6SM SCT035 BKN120
     FM022100 20009KT P6SM VCSH BKN050 OVC090
     FM030200 18012KT P6SM -SHRA BKN035 OVC050
     FM030900 19012G18KT P6SM VCSH SCT015 OVC035=

USA.gov is the U.S. government's official web portal to all federal, state and local government web resources and services.